AAL2783 KPHL-KBOS
Flight info
| Callsign | AAL2783 |
|---|---|
| Flight time | 0h 50m |
| Altitude | 23000 |
| Route | DITCH LUIGI HNNAH JFK ROBUC3 |
| Aircraft | A320/M-SDE3FGHIRWY/LB1 |
Departure
| Time | 2026-05-06 19:50 |
|---|---|
| Airport | Philadelphia International Airport (KPHL) |
Arrival
| Time | 2026-05-06 20:40 |
|---|---|
| Airport | Boston Logan International Airport (KBOS) |
| Time | Latitude | Longitude | Altitude | Speed | Heading |
|---|---|---|---|---|---|
| 2026-05-06 19:16 | 39.87416 | -75.24054 | 22 ft | 0 kts | 358° |
| 2026-05-06 19:40 | 39.87392 | -75.24051 | 25 ft | 4 kts | 345° |
| 2026-05-06 19:40 | 39.87370 | -75.24038 | 24 ft | 4 kts | 306° |
| 2026-05-06 19:41 | 39.87364 | -75.24016 | 26 ft | 1 kts | 256° |
| 2026-05-06 19:41 | 39.87365 | -75.24011 | 24 ft | 0 kts | 256° |
| 2026-05-06 19:44 | 39.87362 | -75.24028 | 24 ft | 6 kts | 256° |
| 2026-05-06 19:45 | 39.87347 | -75.24105 | 22 ft | 10 kts | 255° |
| 2026-05-06 19:45 | 39.87314 | -75.24187 | 22 ft | 11 kts | 201° |
| 2026-05-06 19:45 | 39.87266 | -75.24173 | 23 ft | 5 kts | 157° |
| 2026-05-06 19:45 | 39.87254 | -75.24165 | 23 ft | 0 kts | 153° |
| 2026-05-06 19:46 | 39.87228 | -75.24148 | 23 ft | 12 kts | 153° |
| 2026-05-06 19:46 | 39.87139 | -75.24095 | 25 ft | 15 kts | 162° |
| 2026-05-06 19:46 | 39.87029 | -75.24059 | 23 ft | 17 kts | 165° |
| 2026-05-06 19:47 | 39.86935 | -75.24026 | 23 ft | 12 kts | 165° |
| 2026-05-06 19:47 | 39.86909 | -75.23945 | 23 ft | 11 kts | 77° |
| 2026-05-06 19:47 | 39.86927 | -75.23856 | 22 ft | 10 kts | 76° |
| 2026-05-06 19:47 | 39.86942 | -75.23776 | 22 ft | 9 kts | 75° |
| 2026-05-06 19:48 | 39.86963 | -75.23676 | 22 ft | 13 kts | 75° |
| 2026-05-06 19:48 | 39.86986 | -75.23559 | 22 ft | 13 kts | 76° |
| 2026-05-06 19:48 | 39.87000 | -75.23450 | 21 ft | 11 kts | 102° |
| 2026-05-06 19:48 | 39.86932 | -75.23407 | 21 ft | 13 kts | 178° |
| 2026-05-06 19:49 | 39.86893 | -75.23453 | 23 ft | 13 kts | 253° |
| 2026-05-06 19:49 | 39.86845 | -75.23697 | 22 ft | 57 kts | 255° |
| 2026-05-06 19:49 | 39.86687 | -75.24479 | 21 ft | 119 kts | 255° |
| 2026-05-06 19:49 | 39.86432 | -75.25734 | 61 ft | 161 kts | 253° |
| 2026-05-06 19:50 | 39.86150 | -75.27088 | 878 ft | 153 kts | 247° |
| 2026-05-06 19:50 | 39.85482 | -75.28114 | 1619 ft | 154 kts | 209° |
| 2026-05-06 19:50 | 39.84427 | -75.28641 | 2079 ft | 177 kts | 200° |
| 2026-05-06 19:50 | 39.83174 | -75.29085 | 2639 ft | 196 kts | 199° |
| 2026-05-06 19:51 | 39.81806 | -75.29543 | 3336 ft | 211 kts | 199° |
| 2026-05-06 19:51 | 39.80303 | -75.29992 | 3832 ft | 233 kts | 198° |
| 2026-05-06 19:51 | 39.78660 | -75.30486 | 4341 ft | 249 kts | 198° |
| 2026-05-06 19:51 | 39.76942 | -75.30983 | 5080 ft | 254 kts | 198° |
| 2026-05-06 19:52 | 39.75177 | -75.31320 | 5926 ft | 264 kts | 185° |
| 2026-05-06 19:52 | 39.73350 | -75.30697 | 6771 ft | 284 kts | 158° |
| 2026-05-06 19:52 | 39.71873 | -75.28879 | 7581 ft | 308 kts | 127° |
| 2026-05-06 19:52 | 39.71233 | -75.26202 | 8336 ft | 326 kts | 96° |
| 2026-05-06 19:53 | 39.71383 | -75.23229 | 9125 ft | 334 kts | 84° |
| 2026-05-06 19:53 | 39.71813 | -75.20236 | 9896 ft | 340 kts | 79° |
| 2026-05-06 19:53 | 39.72367 | -75.17203 | 10401 ft | 355 kts | 78° |
| 2026-05-06 19:53 | 39.72973 | -75.13993 | 10637 ft | 378 kts | 78° |
| 2026-05-06 19:54 | 39.73595 | -75.10553 | 10862 ft | 402 kts | 79° |
| 2026-05-06 19:54 | 39.74209 | -75.06905 | 11044 ft | 422 kts | 79° |
| 2026-05-06 19:54 | 39.74802 | -75.03126 | 11533 ft | 430 kts | 80° |
| 2026-05-06 19:54 | 39.75374 | -74.99285 | 11900 ft | 435 kts | 81° |
| 2026-05-06 19:55 | 39.75936 | -74.95418 | 11992 ft | 436 kts | 81° |
| 2026-05-06 19:55 | 39.76491 | -74.91540 | 12081 ft | 439 kts | 81° |
| 2026-05-06 19:55 | 39.77052 | -74.87623 | 12794 ft | 441 kts | 81° |
| 2026-05-06 19:55 | 39.77612 | -74.83738 | 13476 ft | 445 kts | 81° |
| 2026-05-06 19:56 | 39.78221 | -74.79776 | 14053 ft | 449 kts | 76° |
| 2026-05-06 19:56 | 39.79225 | -74.75913 | 14604 ft | 453 kts | 65° |
| 2026-05-06 19:56 | 39.80715 | -74.72299 | 15159 ft | 455 kts | 54° |
| 2026-05-06 19:56 | 39.82646 | -74.69031 | 15743 ft | 455 kts | 44° |
| 2026-05-06 19:57 | 39.84940 | -74.66212 | 16324 ft | 454 kts | 34° |
| 2026-05-06 19:57 | 39.87459 | -74.63720 | 16911 ft | 455 kts | 32° |
| 2026-05-06 19:57 | 39.89995 | -74.61228 | 17525 ft | 458 kts | 32° |
| 2026-05-06 19:57 | 39.92541 | -74.58720 | 18075 ft | 460 kts | 32° |
| 2026-05-06 19:58 | 39.95100 | -74.56192 | 18547 ft | 463 kts | 32° |
| 2026-05-06 19:58 | 39.97678 | -74.53640 | 18986 ft | 466 kts | 32° |
| 2026-05-06 19:58 | 40.00275 | -74.51068 | 19412 ft | 469 kts | 32° |
| 2026-05-06 19:58 | 40.02884 | -74.48481 | 19838 ft | 473 kts | 32° |
| 2026-05-06 19:59 | 40.05510 | -74.45876 | 20244 ft | 476 kts | 31° |
| 2026-05-06 19:59 | 40.08154 | -74.43253 | 20668 ft | 479 kts | 31° |
| 2026-05-06 19:59 | 40.10814 | -74.40612 | 21039 ft | 482 kts | 31° |
| 2026-05-06 19:59 | 40.13492 | -74.37951 | 21420 ft | 485 kts | 31° |
| 2026-05-06 20:00 | 40.16180 | -74.35275 | 21778 ft | 487 kts | 31° |
| 2026-05-06 20:00 | 40.18882 | -74.32580 | 22160 ft | 489 kts | 31° |
| 2026-05-06 20:00 | 40.21598 | -74.29871 | 22537 ft | 491 kts | 31° |
| 2026-05-06 20:00 | 40.24322 | -74.27151 | 22810 ft | 493 kts | 31° |
| 2026-05-06 20:01 | 40.27027 | -74.24448 | 22901 ft | 501 kts | 31° |
| 2026-05-06 20:01 | 40.29825 | -74.21652 | 22857 ft | 511 kts | 32° |
| 2026-05-06 20:01 | 40.32664 | -74.18808 | 22868 ft | 516 kts | 32° |
| 2026-05-06 20:01 | 40.35521 | -74.15940 | 22862 ft | 517 kts | 32° |
| 2026-05-06 20:02 | 40.38376 | -74.13069 | 22859 ft | 518 kts | 32° |
| 2026-05-06 20:02 | 40.41235 | -74.10189 | 22854 ft | 518 kts | 32° |
| 2026-05-06 20:02 | 40.44089 | -74.07312 | 22852 ft | 518 kts | 32° |
| 2026-05-06 20:02 | 40.46850 | -74.04231 | 22857 ft | 525 kts | 39° |
| 2026-05-06 20:03 | 40.49286 | -74.00629 | 22849 ft | 531 kts | 47° |
| 2026-05-06 20:03 | 40.51567 | -73.96810 | 22850 ft | 531 kts | 48° |
| 2026-05-06 20:03 | 40.53847 | -73.92983 | 22860 ft | 531 kts | 48° |
| 2026-05-06 20:03 | 40.56126 | -73.89159 | 22865 ft | 531 kts | 48° |
| 2026-05-06 20:04 | 40.58403 | -73.85339 | 22868 ft | 531 kts | 48° |
| 2026-05-06 20:04 | 40.60680 | -73.81515 | 22868 ft | 531 kts | 48° |
| 2026-05-06 20:04 | 40.62958 | -73.77693 | 22893 ft | 530 kts | 47° |
| 2026-05-06 20:04 | 40.65291 | -73.73929 | 22876 ft | 530 kts | 45° |
| 2026-05-06 20:05 | 40.67709 | -73.70283 | 22866 ft | 529 kts | 43° |
| 2026-05-06 20:05 | 40.70196 | -73.66714 | 22862 ft | 528 kts | 42° |
| 2026-05-06 20:05 | 40.72707 | -73.63194 | 22825 ft | 528 kts | 42° |
| 2026-05-06 20:05 | 40.75223 | -73.59665 | 22831 ft | 527 kts | 43° |
| 2026-05-06 20:06 | 40.77713 | -73.56117 | 22838 ft | 528 kts | 43° |
| 2026-05-06 20:06 | 40.80184 | -73.52529 | 22874 ft | 528 kts | 44° |
| 2026-05-06 20:06 | 40.82632 | -73.48920 | 22875 ft | 528 kts | 44° |
| 2026-05-06 20:06 | 40.85068 | -73.45295 | 22868 ft | 527 kts | 44° |
| 2026-05-06 20:07 | 40.87499 | -73.41671 | 22864 ft | 527 kts | 44° |
| 2026-05-06 20:07 | 40.89931 | -73.38052 | 22862 ft | 527 kts | 44° |
| 2026-05-06 20:07 | 40.92367 | -73.34439 | 22855 ft | 527 kts | 44° |
| 2026-05-06 20:07 | 40.94782 | -73.30866 | 22858 ft | 527 kts | 44° |
| 2026-05-06 20:08 | 40.97225 | -73.27257 | 22861 ft | 526 kts | 44° |
| 2026-05-06 20:08 | 40.99671 | -73.23644 | 22861 ft | 526 kts | 44° |
| 2026-05-06 20:08 | 41.02113 | -73.20031 | 22860 ft | 526 kts | 44° |
| 2026-05-06 20:08 | 41.04548 | -73.16419 | 22860 ft | 526 kts | 44° |
| 2026-05-06 20:09 | 41.06983 | -73.12794 | 22851 ft | 525 kts | 45° |
| 2026-05-06 20:09 | 41.09412 | -73.09171 | 22845 ft | 525 kts | 45° |
| 2026-05-06 20:09 | 41.11835 | -73.05547 | 22839 ft | 525 kts | 45° |
| 2026-05-06 20:09 | 41.14257 | -73.01915 | 22862 ft | 525 kts | 45° |
| 2026-05-06 20:10 | 41.16676 | -72.98281 | 22856 ft | 526 kts | 45° |
| 2026-05-06 20:10 | 41.19098 | -72.94642 | 22825 ft | 526 kts | 45° |
| 2026-05-06 20:10 | 41.21326 | -72.90773 | 22822 ft | 529 kts | 56° |
| 2026-05-06 20:10 | 41.23060 | -72.86546 | 22807 ft | 511 kts | 62° |
| 2026-05-06 20:11 | 41.24646 | -72.82404 | 22534 ft | 496 kts | 62° |
| 2026-05-06 20:11 | 41.26196 | -72.78359 | 22056 ft | 488 kts | 62° |
| 2026-05-06 20:11 | 41.27716 | -72.74391 | 21789 ft | 475 kts | 62° |
| 2026-05-06 20:11 | 41.29200 | -72.70511 | 21532 ft | 466 kts | 62° |
| 2026-05-06 20:12 | 41.30636 | -72.66747 | 21369 ft | 460 kts | 62° |
| 2026-05-06 20:12 | 41.32081 | -72.62952 | 21370 ft | 460 kts | 62° |
| 2026-05-06 20:12 | 41.33526 | -72.59152 | 21344 ft | 460 kts | 62° |
| 2026-05-06 20:12 | 41.34970 | -72.55355 | 21344 ft | 460 kts | 62° |
| 2026-05-06 20:13 | 41.36412 | -72.51560 | 21344 ft | 460 kts | 62° |
| 2026-05-06 20:13 | 41.37855 | -72.47758 | 21345 ft | 459 kts | 62° |
| 2026-05-06 20:13 | 41.39291 | -72.43960 | 21164 ft | 459 kts | 63° |
| 2026-05-06 20:13 | 41.40724 | -72.40166 | 20913 ft | 458 kts | 63° |
| 2026-05-06 20:14 | 41.42148 | -72.36382 | 20846 ft | 456 kts | 63° |
| 2026-05-06 20:14 | 41.43571 | -72.32598 | 20868 ft | 457 kts | 63° |
| 2026-05-06 20:14 | 41.44992 | -72.28807 | 20872 ft | 457 kts | 63° |
| 2026-05-06 20:14 | 41.46409 | -72.25018 | 20847 ft | 457 kts | 63° |
| 2026-05-06 20:15 | 41.47827 | -72.21227 | 20871 ft | 457 kts | 63° |
| 2026-05-06 20:15 | 41.49242 | -72.17431 | 20748 ft | 456 kts | 63° |
| 2026-05-06 20:15 | 41.50642 | -72.13636 | 20623 ft | 455 kts | 63° |
| 2026-05-06 20:15 | 41.52012 | -72.09888 | 20507 ft | 454 kts | 64° |
| 2026-05-06 20:16 | 41.53391 | -72.06098 | 20380 ft | 453 kts | 64° |
| 2026-05-06 20:16 | 41.54765 | -72.02310 | 20255 ft | 453 kts | 64° |
| 2026-05-06 20:16 | 41.56114 | -71.98519 | 20134 ft | 452 kts | 65° |
| 2026-05-06 20:16 | 41.57366 | -71.94668 | 20015 ft | 451 kts | 68° |
| 2026-05-06 20:17 | 41.58529 | -71.90781 | 19877 ft | 450 kts | 69° |
| 2026-05-06 20:17 | 41.59645 | -71.86882 | 19768 ft | 450 kts | 70° |
| 2026-05-06 20:17 | 41.60753 | -71.82970 | 19653 ft | 449 kts | 70° |
| 2026-05-06 20:17 | 41.61861 | -71.79071 | 19533 ft | 448 kts | 70° |
| 2026-05-06 20:18 | 41.62982 | -71.75176 | 19409 ft | 447 kts | 69° |
| 2026-05-06 20:18 | 41.64111 | -71.71310 | 19289 ft | 446 kts | 69° |
| 2026-05-06 20:18 | 41.65249 | -71.67452 | 19170 ft | 446 kts | 69° |
| 2026-05-06 20:18 | 41.66381 | -71.63624 | 19053 ft | 436 kts | 69° |
| 2026-05-06 20:19 | 41.67467 | -71.59962 | 18924 ft | 423 kts | 69° |
| 2026-05-06 20:19 | 41.68533 | -71.56359 | 18775 ft | 412 kts | 69° |
| 2026-05-06 20:19 | 41.69573 | -71.52822 | 18296 ft | 405 kts | 69° |
| 2026-05-06 20:19 | 41.70593 | -71.49328 | 17543 ft | 402 kts | 69° |
| 2026-05-06 20:20 | 41.71603 | -71.45859 | 17137 ft | 398 kts | 70° |
| 2026-05-06 20:20 | 41.72698 | -71.42454 | 16654 ft | 398 kts | 62° |
| 2026-05-06 20:20 | 41.74061 | -71.39230 | 16257 ft | 396 kts | 60° |
| 2026-05-06 20:20 | 41.75431 | -71.36026 | 15747 ft | 396 kts | 60° |
| 2026-05-06 20:21 | 41.76787 | -71.32851 | 15216 ft | 392 kts | 60° |
| 2026-05-06 20:21 | 41.78143 | -71.29684 | 14879 ft | 388 kts | 60° |
| 2026-05-06 20:21 | 41.79479 | -71.26571 | 14256 ft | 385 kts | 60° |
| 2026-05-06 20:21 | 41.80803 | -71.23482 | 13757 ft | 379 kts | 60° |
| 2026-05-06 20:22 | 41.82093 | -71.20458 | 13339 ft | 370 kts | 61° |
| 2026-05-06 20:22 | 41.83354 | -71.17482 | 12793 ft | 365 kts | 62° |
| 2026-05-06 20:22 | 41.84598 | -71.14537 | 12335 ft | 362 kts | 62° |
| 2026-05-06 20:22 | 41.85843 | -71.11588 | 11920 ft | 364 kts | 62° |
| 2026-05-06 20:23 | 41.87073 | -71.08708 | 11797 ft | 359 kts | 61° |
| 2026-05-06 20:23 | 41.88329 | -71.05810 | 11644 ft | 358 kts | 61° |
| 2026-05-06 20:23 | 41.89582 | -71.02931 | 11489 ft | 357 kts | 61° |
| 2026-05-06 20:23 | 41.90831 | -71.00059 | 11324 ft | 356 kts | 61° |
| 2026-05-06 20:24 | 41.92076 | -70.97184 | 11167 ft | 356 kts | 62° |
| 2026-05-06 20:24 | 41.93313 | -70.94316 | 11005 ft | 354 kts | 62° |
| 2026-05-06 20:24 | 41.94541 | -70.91459 | 10847 ft | 353 kts | 62° |
| 2026-05-06 20:24 | 41.95765 | -70.88607 | 10677 ft | 352 kts | 62° |
| 2026-05-06 20:25 | 41.96990 | -70.85752 | 10513 ft | 352 kts | 63° |
| 2026-05-06 20:25 | 41.98212 | -70.82905 | 10368 ft | 351 kts | 63° |
| 2026-05-06 20:25 | 41.99433 | -70.80058 | 10212 ft | 350 kts | 63° |
| 2026-05-06 20:25 | 42.00655 | -70.77227 | 10060 ft | 350 kts | 60° |
| 2026-05-06 20:26 | 42.02145 | -70.74633 | 9782 ft | 352 kts | 49° |
| 2026-05-06 20:26 | 42.03779 | -70.72192 | 9406 ft | 350 kts | 49° |
| 2026-05-06 20:26 | 42.05399 | -70.69770 | 9069 ft | 347 kts | 49° |
| 2026-05-06 20:26 | 42.07006 | -70.67368 | 8753 ft | 344 kts | 49° |
| 2026-05-06 20:27 | 42.08602 | -70.64986 | 8418 ft | 341 kts | 48° |
| 2026-05-06 20:27 | 42.10340 | -70.62900 | 8099 ft | 338 kts | 33° |
| 2026-05-06 20:27 | 42.12384 | -70.61407 | 7781 ft | 332 kts | 17° |
| 2026-05-06 20:27 | 42.14582 | -70.60573 | 7468 ft | 326 kts | 6° |
| 2026-05-06 20:28 | 42.16798 | -70.59967 | 7172 ft | 324 kts | 6° |
| 2026-05-06 20:28 | 42.19006 | -70.59357 | 6867 ft | 323 kts | 6° |
| 2026-05-06 20:28 | 42.21205 | -70.58742 | 6559 ft | 322 kts | 6° |
| 2026-05-06 20:28 | 42.23393 | -70.58124 | 6249 ft | 321 kts | 6° |
| 2026-05-06 20:29 | 42.25575 | -70.57507 | 5926 ft | 319 kts | 7° |
| 2026-05-06 20:29 | 42.27745 | -70.56893 | 5619 ft | 318 kts | 7° |
| 2026-05-06 20:29 | 42.29908 | -70.56396 | 5300 ft | 311 kts | 356° |
| 2026-05-06 20:29 | 42.32012 | -70.56643 | 4976 ft | 297 kts | 336° |
| 2026-05-06 20:30 | 42.33880 | -70.57647 | 4659 ft | 282 kts | 319° |
| 2026-05-06 20:30 | 42.36727 | -70.60964 | 4008 ft | 267 kts | 304° |
| 2026-05-06 20:30 | 42.38034 | -70.62688 | 3675 ft | 265 kts | 304° |
| 2026-05-06 20:31 | 42.39356 | -70.64424 | 3362 ft | 263 kts | 304° |
| 2026-05-06 20:31 | 42.40665 | -70.66141 | 3051 ft | 261 kts | 304° |
| 2026-05-06 20:31 | 42.41965 | -70.67845 | 2954 ft | 260 kts | 304° |
| 2026-05-06 20:31 | 42.43268 | -70.69558 | 2958 ft | 261 kts | 304° |
| 2026-05-06 20:32 | 42.44569 | -70.71271 | 2956 ft | 261 kts | 304° |
| 2026-05-06 20:32 | 42.45869 | -70.72982 | 2956 ft | 256 kts | 304° |
| 2026-05-06 20:32 | 42.47114 | -70.74606 | 2952 ft | 240 kts | 303° |
| 2026-05-06 20:32 | 42.48290 | -70.76136 | 2954 ft | 230 kts | 302° |
| 2026-05-06 20:33 | 42.49430 | -70.77642 | 2954 ft | 228 kts | 302° |
| 2026-05-06 20:33 | 42.50568 | -70.79158 | 2956 ft | 230 kts | 303° |
| 2026-05-06 20:33 | 42.51707 | -70.80677 | 2955 ft | 230 kts | 303° |
| 2026-05-06 20:33 | 42.52833 | -70.82187 | 2900 ft | 222 kts | 300° |
| 2026-05-06 20:34 | 42.53695 | -70.83801 | 2659 ft | 206 kts | 288° |
| 2026-05-06 20:34 | 42.54406 | -70.85473 | 2350 ft | 204 kts | 286° |
| 2026-05-06 20:34 | 42.55104 | -70.87151 | 2063 ft | 203 kts | 285° |
| 2026-05-06 20:34 | 42.55474 | -70.88889 | 2017 ft | 191 kts | 257° |
| 2026-05-06 20:35 | 42.55071 | -70.90555 | 2016 ft | 185 kts | 233° |
| 2026-05-06 20:35 | 42.54223 | -70.91779 | 2006 ft | 171 kts | 212° |
| 2026-05-06 20:35 | 42.53187 | -70.92400 | 2024 ft | 157 kts | 202° |
| 2026-05-06 20:35 | 42.52172 | -70.92895 | 2020 ft | 153 kts | 202° |
| 2026-05-06 20:36 | 42.51183 | -70.93377 | 2015 ft | 149 kts | 203° |
| 2026-05-06 20:36 | 42.50207 | -70.93852 | 2006 ft | 149 kts | 202° |
| 2026-05-06 20:36 | 42.49238 | -70.94323 | 2009 ft | 148 kts | 202° |
| 2026-05-06 20:36 | 42.48254 | -70.94803 | 2006 ft | 152 kts | 202° |
| 2026-05-06 20:37 | 42.47309 | -70.95261 | 1982 ft | 143 kts | 202° |
| 2026-05-06 20:37 | 42.46375 | -70.95715 | 1880 ft | 141 kts | 202° |
| 2026-05-06 20:37 | 42.45454 | -70.96162 | 1732 ft | 140 kts | 200° |
| 2026-05-06 20:37 | 42.44540 | -70.96606 | 1556 ft | 140 kts | 200° |
| 2026-05-06 20:38 | 42.43925 | -70.96904 | 1441 ft | 139 kts | 201° |
| 2026-05-06 20:38 | 42.43015 | -70.97346 | 1253 ft | 139 kts | 200° |
| 2026-05-06 20:38 | 42.42115 | -70.97783 | 1049 ft | 138 kts | 201° |
| 2026-05-06 20:38 | 42.41206 | -70.98222 | 842 ft | 141 kts | 200° |
| 2026-05-06 20:39 | 42.40285 | -70.98669 | 678 ft | 141 kts | 198° |
| 2026-05-06 20:39 | 42.39347 | -70.99118 | 470 ft | 143 kts | 198° |
| 2026-05-06 20:39 | 42.38429 | -70.99562 | 273 ft | 143 kts | 198° |
| 2026-05-06 20:39 | 42.37518 | -71.00018 | 73 ft | 136 kts | 199° |
| 2026-05-06 20:40 | 42.36702 | -71.00409 | 27 ft | 100 kts | 200° |
| 2026-05-06 20:40 | 42.36208 | -71.00649 | 25 ft | 51 kts | 200° |
| 2026-05-06 20:40 | 42.35981 | -71.00760 | 27 ft | 29 kts | 201° |
| 2026-05-06 20:40 | 42.35829 | -71.00843 | 27 ft | 11 kts | 224° |
| 2026-05-06 20:41 | 42.35816 | -71.00949 | 25 ft | 12 kts | 274° |
| 2026-05-06 20:41 | 42.35826 | -71.01050 | 25 ft | 10 kts | 278° |
| 2026-05-06 20:41 | 42.35834 | -71.01127 | 27 ft | 7 kts | 276° |
| 2026-05-06 20:41 | 42.35843 | -71.01248 | 25 ft | 20 kts | 277° |
| 2026-05-06 20:42 | 42.35870 | -71.01467 | 25 ft | 24 kts | 282° |
| 2026-05-06 20:42 | 42.35892 | -71.01627 | 29 ft | 12 kts | 279° |
| 2026-05-06 20:42 | 42.35904 | -71.01720 | 25 ft | 8 kts | 281° |
| 2026-05-06 20:42 | 42.35918 | -71.01806 | 25 ft | 12 kts | 287° |
| 2026-05-06 20:43 | 42.35956 | -71.01910 | 25 ft | 14 kts | 301° |
| 2026-05-06 20:43 | 42.35998 | -71.01943 | 27 ft | 1 kts | 29° |
| 2026-05-06 20:43 | 42.36014 | -71.01927 | 25 ft | 0 kts | 33° |
| 2026-05-06 20:43 | 42.36030 | -71.01915 | 28 ft | 4 kts | 30° |
| 2026-05-06 20:44 | 42.36039 | -71.01908 | 25 ft | 0 kts | 30° |